Time;durP1;ratioP1;P1;durP2;ratioP2;P2;SDS_P1;SDS_P2;PMS_P1;PMS_P2;Temp;Humidity;BMP_temperature;BMP_pressure;BME280_temperature;BME280_humidity;BME280_pressure;Samples;Min_cycle;Max_cycle;Signal;HPM_P1;HPM_P2
2023/08/29 00:01:07;;;;;;;0.00;0.00;;;;;;;14.82;73.50;100261.75;4987344;28;20033;-76
2023/08/29 00:03:33;;;;;;;0.00;0.00;;;;;;;14.80;74.05;100260.41;5003298;28;20096;-75
2023/08/29 00:06:03;;;;;;;0.00;0.00;;;;;;;14.83;73.87;100263.41;5002473;28;20025;-76
2023/08/29 00:08:29;;;;;;;0.00;0.00;;;;;;;14.87;74.23;100271.06;5004220;28;20025;-77
2023/08/29 00:10:59;;;;;;;0.00;0.00;;;;;;;14.80;74.30;100257.66;5010460;28;20371;-77
2023/08/29 00:13:44;;;;;;;0.00;0.00;;;;;;;14.72;74.21;100241.81;5003735;28;20028;-76
2023/08/29 00:16:16;;;;;;;0.00;0.00;;;;;;;14.79;74.68;100261.53;4992303;28;20546;-78
2023/08/29 00:18:50;;;;;;;0.00;0.00;;;;;;;14.81;74.64;100262.88;4989250;28;20037;-78
2023/08/29 00:21:15;;;;;;;0.00;0.00;;;;;;;14.78;74.65;100254.41;5003386;28;20080;-79
2023/08/29 00:23:48;;;;;;;0.00;0.00;;;;;;;14.68;74.88;100247.09;5007037;28;20420;-77
2023/08/29 00:26:16;;;;;;;0.00;0.00;;;;;;;14.84;75.16;100272.47;5003077;28;20029;-79
2023/08/29 00:28:46;;;;;;;0.00;0.00;;;;;;;14.69;74.82;100243.25;4999195;28;20056;-77
2023/08/29 00:31:12;;;;;;;0.00;0.00;;;;;;;14.74;74.93;100250.59;4989981;28;20068;-77
2023/08/29 00:33:45;;;;;;;0.00;0.00;;;;;;;14.75;75.01;100250.31;5005559;28;20435;-78
2023/08/29 00:36:11;;;;;;;0.00;0.00;;;;;;;14.77;75.26;100259.06;4987806;28;20025;-79
2023/08/29 00:38:36;;;;;;;0.00;0.00;;;;;;;14.80;75.34;100261.22;5009356;28;20384;-77
2023/08/29 00:44:34;;;;;;;0.00;0.00;;;;;;;14.68;75.51;100232.53;4897989;29;20188;-76
2023/08/29 00:47:01;;;;;;;0.00;0.00;;;;;;;14.76;75.45;100249.19;4875053;29;20131;-77
2023/08/29 00:49:47;;;;;;;0.00;0.00;;;;;;;14.79;75.34;100245.84;4897129;28;20133;-76
2023/08/29 00:52:13;;;;;;;0.00;0.00;;;;;;;14.63;75.94;100223.25;4956200;28;20022;-74
2023/08/29 00:54:50;;;;;;;0.00;0.00;;;;;;;14.60;75.84;100217.47;4948288;28;20050;-76
2023/08/29 00:57:16;;;;;;;0.00;0.00;;;;;;;14.65;76.54;100237.50;4975289;28;20075;-77
2023/08/29 01:00:03;;;;;;;0.00;0.00;;;;;;;14.45;76.29;100216.56;4977105;28;20074;-77
2023/08/29 01:02:46;;;;;;;0.00;0.00;;;;;;;14.47;76.51;100217.09;4964031;28;20074;-79
2023/08/29 01:05:21;;;;;;;0.00;0.00;;;;;;;14.33;76.63;100207.94;4939222;28;20034;-78
2023/08/29 01:07:51;;;;;;;0.00;0.00;;;;;;;14.25;77.06;100211.34;4962827;28;20042;-79
2023/08/29 01:10:21;;;;;;;0.00;0.00;;;;;;;14.00;77.49;100183.09;4970950;28;20046;-78
2023/08/29 01:13:03;;;;;;;0.00;0.00;;;;;;;14.16;78.18;100219.44;4965980;28;20063;-77
2023/08/29 01:15:32;;;;;;;0.00;0.00;;;;;;;14.20;78.69;100230.69;5000693;28;20072;-77
2023/08/29 01:18:05;;;;;;;0.00;0.00;;;;;;;14.21;78.56;100226.84;4997903;28;20062;-78
2023/08/29 01:20:33;;;;;;;0.00;0.00;;;;;;;14.25;78.76;100238.84;4997182;28;20480;-77
2023/08/29 01:23:06;;;;;;;0.00;0.00;;;;;;;14.24;78.46;100229.00;4978171;28;20037;-76
2023/08/29 01:25:48;;;;;;;0.00;0.00;;;;;;;14.08;78.74;100206.38;4999671;28;20030;-77
2023/08/29 01:28:13;;;;;;;0.00;0.00;;;;;;;14.06;78.63;100209.41;4999261;28;20018;-77
2023/08/29 01:30:41;;;;;;;0.00;0.00;;;;;;;13.95;79.20;100189.47;4975754;28;20056;-77
2023/08/29 01:33:07;;;;;;;0.00;0.00;;;;;;;13.91;79.82;100190.34;5001864;28;20029;-76
2023/08/29 01:35:33;;;;;;;0.00;0.00;;;;;;;13.96;80.00;100210.34;4992203;28;20038;-77
2023/08/29 01:38:06;;;;;;;0.00;0.00;;;;;;;13.78;80.67;100180.88;4989979;28;20033;-77
2023/08/29 01:40:39;;;;;;;0.00;0.00;;;;;;;13.76;80.71;100174.88;4991100;28;20037;-77
2023/08/29 01:43:05;;;;;;;0.00;0.00;;;;;;;13.77;80.89;100185.56;4998306;28;20112;-76
2023/08/29 01:45:30;;;;;;;0.00;0.00;;;;;;;13.79;81.65;100188.84;4994711;28;20034;-75
2023/08/29 01:48:01;;;;;;;0.00;0.00;;;;;;;13.84;81.51;100195.41;4986101;28;20088;-75
2023/08/29 01:50:47;;;;;;;0.00;0.00;;;;;;;13.81;81.69;100187.75;4973329;28;20033;-76
2023/08/29 01:53:13;;;;;;;0.00;0.00;;;;;;;13.87;81.64;100189.31;5000625;28;20018;-75
2023/08/29 01:55:47;;;;;;;0.00;0.00;;;;;;;13.81;81.60;100185.00;4995726;28;20037;-75
2023/08/29 01:58:15;;;;;;;0.00;0.00;;;;;;;13.89;82.12;100198.09;4987909;28;20025;-75
2023/08/29 02:00:48;;;;;;;0.00;0.00;;;;;;;13.87;81.39;100206.63;5004695;28;20025;-75
2023/08/29 02:03:16;;;;;;;0.00;0.00;;;;;;;13.93;81.30;100204.63;4982384;28;22025;-75
2023/08/29 02:05:44;;;;;;;0.00;0.00;;;;;;;13.86;81.14;100193.19;4981513;28;20038;-76
2023/08/29 02:08:09;;;;;;;0.00;0.00;;;;;;;13.93;80.99;100201.88;4956818;28;20031;-75
2023/08/29 02:10:55;;;;;;;0.00;0.00;;;;;;;14.06;81.22;100220.41;4981023;28;20393;-75
2023/08/29 02:13:20;;;;;;;0.00;0.00;;;;;;;14.07;81.51;100233.03;4984329;28;20478;-76
2023/08/29 02:15:46;;;;;;;0.00;0.00;;;;;;;13.91;81.18;100201.34;4963438;28;20097;-75
2023/08/29 02:18:11;;;;;;;0.00;0.00;;;;;;;13.96;81.53;100204.06;4955800;28;20121;-76
2023/08/29 02:20:37;;;;;;;0.00;0.00;;;;;;;13.96;81.56;100210.34;4951623;28;20031;-76
2023/08/29 02:23:02;;;;;;;0.00;0.00;;;;;;;13.97;81.43;100205.66;4953129;28;20033;-76
2023/08/29 02:25:28;;;;;;;0.00;0.00;;;;;;;14.00;81.41;100202.31;4970055;28;20047;-76
2023/08/29 02:27:54;;;;;;;0.00;0.00;;;;;;;13.99;81.21;100191.63;4972695;28;20029;-76
2023/08/29 02:30:19;;;;;;;0.00;0.00;;;;;;;14.02;81.08;100186.38;4981850;28;20030;-76
2023/08/29 02:32:47;;;;;;;0.00;0.00;;;;;;;14.04;80.85;100195.13;4976932;28;20081;-76
2023/08/29 02:35:13;;;;;;;0.00;0.00;;;;;;;14.06;81.06;100195.69;4983499;28;20389;-77
2023/08/29 02:37:48;;;;;;;;;;;;;;;;;;;;;
2023/08/29 02:40:14;;;;;;;0.00;0.00;;;;;;;14.00;81.03;100187.78;4973496;28;20033;-77
2023/08/29 02:42:43;;;;;;;0.00;0.00;;;;;;;14.05;81.08;100195.97;4986613;28;20113;-78
2023/08/29 02:45:09;;;;;;;0.00;0.00;;;;;;;14.10;81.22;100202.19;4991795;28;20022;-78
2023/08/29 02:47:34;;;;;;;0.00;0.00;;;;;;;14.11;81.42;100192.03;4992408;28;20395;-76
2023/08/29 02:50:03;;;;;;;0.00;0.00;;;;;;;14.03;80.74;100188.03;4986324;28;20026;-77
2023/08/29 02:52:32;;;;;;;0.00;0.00;;;;;;;14.01;81.27;100186.66;4984341;28;20133;-78
2023/08/29 02:54:58;;;;;;;0.00;0.00;;;;;;;13.98;80.99;100179.81;4984023;28;20469;-76
2023/08/29 02:57:31;;;;;;;0.00;0.00;;;;;;;14.00;81.25;100198.78;4982974;28;20092;-77
2023/08/29 03:00:05;;;;;;;0.00;0.00;;;;;;;13.96;81.12;100187.56;4987505;28;20018;-76
2023/08/29 03:02:51;;;;;;;0.00;0.00;;;;;;;13.91;81.54;100182.13;4992662;28;20046;-77
2023/08/29 03:05:16;;;;;;;0.00;0.00;;;;;;;13.81;81.59;100168.50;4992449;28;20097;-76
2023/08/29 03:07:51;;;;;;;0.00;0.00;;;;;;;13.74;81.54;100166.94;4990086;28;20026;-78
2023/08/29 03:10:17;;;;;;;0.00;0.00;;;;;;;13.79;82.04;100166.03;4975937;28;20540;-78
2023/08/29 03:12:50;;;;;;;0.00;0.00;;;;;;;13.81;81.82;100163.00;4982364;28;20113;-77
2023/08/29 03:15:15;;;;;;;0.00;0.00;;;;;;;13.82;81.59;100170.16;4994795;28;20102;-77
2023/08/29 03:17:50;;;;;;;0.00;0.00;;;;;;;13.81;82.23;100165.75;4979374;28;20117;-76
2023/08/29 03:20:18;;;;;;;0.00;0.00;;;;;;;13.96;82.02;100187.56;4961840;28;20556;-77
2023/08/29 03:22:53;;;;;;;0.00;0.00;;;;;;;13.94;82.25;100192.53;4992301;28;20084;-76
2023/08/29 03:25:20;;;;;;;0.00;0.00;;;;;;;13.84;82.17;100173.41;4988699;28;20051;-75
2023/08/29 03:27:46;;;;;;;0.00;0.00;;;;;;;13.83;82.54;100167.09;4995643;28;20569;-76
2023/08/29 03:30:12;;;;;;;0.00;0.00;;;;;;;13.89;82.87;100173.34;4971481;28;20027;-76
2023/08/29 03:32:53;;;;;;;;;;;;;;;;;;;;;
2023/08/29 03:35:19;;;;;;;0.00;0.00;;;;;;;13.75;82.64;100157.56;4974334;28;20483;-76
2023/08/29 03:37:47;;;;;;;0.00;0.00;;;;;;;13.66;82.96;100144.78;4992006;28;20042;-77
2023/08/29 03:40:13;;;;;;;0.00;0.00;;;;;;;13.74;82.73;100157.84;4964041;28;20811;-76
2023/08/29 03:42:46;;;;;;;0.00;0.00;;;;;;;13.63;82.99;100150.88;4986959;28;20036;-75
2023/08/29 03:45:18;;;;;;;0.00;0.00;;;;;;;13.69;82.90;100166.97;4983439;28;20104;-76
2023/08/29 03:47:44;;;;;;;0.00;0.00;;;;;;;13.70;83.04;100162.31;4972013;28;20040;-76
2023/08/29 03:50:09;;;;;;;0.00;0.00;;;;;;;13.57;82.95;100144.59;4972967;28;20031;-75
2023/08/29 03:52:40;;;;;;;0.00;0.00;;;;;;;13.71;83.09;100164.78;4967062;28;20058;-75
2023/08/29 03:55:06;;;;;;;0.00;0.00;;;;;;;13.60;83.49;100153.06;4970605;28;20068;-76
2023/08/29 03:57:31;;;;;;;0.00;0.00;;;;;;;13.51;83.92;100126.56;4990309;28;20057;-75
2023/08/29 04:00:10;;;;;;;0.00;0.00;;;;;;;13.47;83.64;100136.50;4979706;28;20080;-77
2023/08/29 04:02:53;;;;;;;0.00;0.00;;;;;;;13.36;84.07;100125.63;4967132;28;20054;-77
2023/08/29 04:05:18;;;;;;;0.00;0.00;;;;;;;13.26;84.86;100132.00;4960210;28;20031;-76
2023/08/29 04:07:46;;;;;;;0.00;0.00;;;;;;;13.15;85.45;100124.16;4966680;28;20030;-76
2023/08/29 04:10:12;;;;;;;0.00;0.00;;;;;;;13.17;85.15;100127.44;4960900;28;20042;-77
2023/08/29 04:12:51;;;;;;;0.00;0.00;;;;;;;13.09;85.37;100120.66;4988014;28;20100;-77
2023/08/29 04:15:23;;;;;;;0.00;0.00;;;;;;;13.26;85.49;100153.16;4980993;28;20029;-75
2023/08/29 04:17:49;;;;;;;0.00;0.00;;;;;;;13.20;85.72;100135.09;4986395;28;20038;-76
2023/08/29 04:20:16;;;;;;;0.00;0.00;;;;;;;13.14;85.72;100128.00;4967762;28;20041;-76
2023/08/29 04:22:53;;;;;;;0.00;0.00;;;;;;;13.14;85.57;100117.03;4982263;28;20547;-76
2023/08/29 04:25:19;;;;;;;0.00;0.00;;;;;;;13.23;86.07;100137.28;4979865;28;20092;-76
2023/08/29 04:27:48;;;;;;;0.00;0.00;;;;;;;13.22;86.01;100130.13;4970393;28;20026;-76
2023/08/29 04:30:14;;;;;;;0.00;0.00;;;;;;;13.16;85.62;100114.84;4971716;28;20027;-76
2023/08/29 04:32:42;;;;;;;0.00;0.00;;;;;;;13.08;85.81;100108.03;4987290;28;20067;-77
2023/08/29 04:35:08;;;;;;;0.00;0.00;;;;;;;13.09;85.98;100110.47;4984021;28;20058;-77
2023/08/29 04:37:44;;;;;;;;;;;;;;;;;;;;;
2023/08/29 04:40:10;;;;;;;0.00;0.00;;;;;;;13.07;85.98;100109.97;4979111;28;20462;-78
2023/08/29 04:42:39;;;;;;;0.00;0.00;;;;;;;13.08;85.81;100117.09;4982253;28;20114;-77
2023/08/29 04:45:05;;;;;;;0.00;0.00;;;;;;;13.16;85.77;100120.31;4983306;28;20030;-77
2023/08/29 04:47:48;;;;;;;0.00;0.00;;;;;;;13.20;85.78;100129.59;4979879;28;20038;-77
2023/08/29 04:50:17;;;;;;;0.00;0.00;;;;;;;13.22;85.51;100124.66;4968697;28;20034;-77
2023/08/29 04:52:53;;;;;;;;;;;;;;;;;;;;;
2023/08/29 04:55:19;;;;;;;0.00;0.00;;;;;;;13.25;85.27;100113.09;4969317;28;20681;-77
2023/08/29 04:57:47;;;;;;;0.00;0.00;;;;;;;13.38;85.10;100137.13;4968395;28;20038;-79
2023/08/29 05:00:16;;;;;;;0.00;0.00;;;;;;;13.46;84.82;100140.34;4975482;28;20074;-79
2023/08/29 05:03:06;;;;;;;0.00;0.00;;;;;;;13.13;85.05;100087.94;4999778;28;20076;-78
2023/08/29 05:05:35;;;;;;;0.00;0.00;;;;;;;13.27;84.99;100124.56;5012817;28;20113;-78
2023/08/29 05:08:04;;;;;;;0.00;0.00;;;;;;;13.22;85.21;100119.16;4995779;28;20041;-77
2023/08/29 05:10:49;;;;;;;0.00;0.00;;;;;;;13.43;85.01;100153.56;4992912;28;20057;-78
2023/08/29 05:13:15;;;;;;;0.00;0.00;;;;;;;13.35;84.91;100137.72;4990853;28;20035;-76
2023/08/29 05:15:52;;;;;;;0.00;0.00;;;;;;;13.48;85.12;100154.59;5010172;28;20029;-79
2023/08/29 05:18:17;;;;;;;0.00;0.00;;;;;;;13.40;84.76;100137.66;4990686;28;20529;-79
2023/08/29 05:20:45;;;;;;;0.00;0.00;;;;;;;13.37;84.90;100121.75;4990264;28;20427;-74
2023/08/29 05:23:14;;;;;;;0.00;0.00;;;;;;;13.60;84.58;100153.06;5011841;28;20021;-75
2023/08/29 05:25:49;;;;;;;0.00;0.00;;;;;;;13.49;84.48;100115.03;4988887;28;20036;-76
2023/08/29 05:28:15;;;;;;;0.00;0.00;;;;;;;13.58;84.46;100121.50;5010380;28;20026;-76
2023/08/29 05:30:42;;;;;;;0.00;0.00;;;;;;;13.63;84.32;100110.47;5009544;28;20468;-76
2023/08/29 05:33:11;;;;;;;0.00;0.00;;;;;;;13.90;83.85;100136.50;4990228;28;20754;-76
2023/08/29 05:35:37;;;;;;;0.00;0.00;;;;;;;13.82;83.42;100131.66;5033119;28;20044;-78
2023/08/29 05:38:04;;;;;;;0.00;0.00;;;;;;;13.83;83.78;100138.78;5002265;28;20026;-78
2023/08/29 05:40:30;;;;;;;0.00;0.00;;;;;;;13.86;83.26;100138.22;4987327;28;20173;-75
2023/08/29 05:42:58;;;;;;;0.00;0.00;;;;;;;13.86;83.17;100141.78;4996979;28;20112;-78
2023/08/29 05:45:26;;;;;;;0.00;0.00;;;;;;;13.80;83.34;100145.72;5001361;28;20032;-77
2023/08/29 05:47:51;;;;;;;0.00;0.00;;;;;;;13.83;83.43;100155.28;5007617;28;20022;-77
2023/08/29 05:50:17;;;;;;;0.00;0.00;;;;;;;13.88;83.18;100157.97;4990294;28;20033;-75
2023/08/29 05:52:42;;;;;;;0.00;0.00;;;;;;;13.77;83.26;100147.09;5001808;28;20033;-76
2023/08/29 05:55:08;;;;;;;0.00;0.00;;;;;;;13.78;83.20;100143.25;4980253;28;20357;-76
2023/08/29 05:57:33;;;;;;;0.00;0.00;;;;;;;13.87;83.08;100161.81;5018314;28;20249;-78
2023/08/29 06:00:03;;;;;;;0.00;0.00;;;;;;;13.88;83.53;100152.47;4989442;28;20041;-74
2023/08/29 06:02:32;;;;;;;0.00;0.00;;;;;;;13.70;82.81;100112.88;5002865;28;20052;-75
2023/08/29 06:04:58;;;;;;;0.00;0.00;;;;;;;13.81;82.94;100130.03;5003740;28;20030;-75
2023/08/29 06:07:24;;;;;;;0.00;0.00;;;;;;;13.96;82.39;100158.13;5002863;28;20076;-75
2023/08/29 06:09:50;;;;;;;0.00;0.00;;;;;;;13.87;82.30;100137.09;5018069;28;20026;-76
2023/08/29 06:12:15;;;;;;;0.00;0.00;;;;;;;13.90;82.46;100145.56;4993043;28;20029;-75
2023/08/29 06:14:48;;;;;;;0.00;0.00;;;;;;;13.94;82.33;100141.13;5013140;28;20483;-75
2023/08/29 06:17:17;;;;;;;0.00;0.00;;;;;;;14.01;82.32;100149.00;5000903;28;20026;-74
2023/08/29 06:19:50;;;;;;;0.00;0.00;;;;;;;14.10;82.27;100152.69;4986813;28;20029;-75
2023/08/29 06:22:15;;;;;;;0.00;0.00;;;;;;;14.10;82.09;100155.44;5001716;28;20064;-75
2023/08/29 06:24:43;;;;;;;0.00;0.00;;;;;;;14.16;82.41;100141.66;5007215;28;20021;-76
2023/08/29 06:27:09;;;;;;;0.00;0.00;;;;;;;14.23;82.05;100142.09;5003268;28;20017;-76
2023/08/29 06:29:34;;;;;;;0.00;0.00;;;;;;;14.20;82.14;100128.94;5004385;28;20026;-75
2023/08/29 06:32:02;;;;;;;0.00;0.00;;;;;;;14.44;82.32;100161.84;5021090;28;20068;-75
2023/08/29 06:34:28;;;;;;;0.00;0.00;;;;;;;14.29;82.29;100146.41;5005946;28;20029;-72
2023/08/29 06:36:53;;;;;;;0.00;0.00;;;;;;;14.33;82.19;100147.44;5009764;28;20040;-75
2023/08/29 06:39:22;;;;;;;0.00;0.00;;;;;;;14.33;82.60;100133.69;4986694;28;20029;-74
2023/08/29 06:41:49;;;;;;;0.00;0.00;;;;;;;14.44;82.33;100154.44;5001131;28;20030;-74
2023/08/29 06:44:17;;;;;;;0.00;0.00;;;;;;;14.53;82.30;100159.25;4984815;28;20034;-75
2023/08/29 06:46:43;;;;;;;0.00;0.00;;;;;;;14.47;82.23;100153.00;4990575;28;20029;-73
2023/08/29 06:49:28;;;;;;;0.00;0.00;;;;;;;14.65;82.39;100176.16;5026218;28;20571;-78
2023/08/29 06:51:54;;;;;;;0.00;0.00;;;;;;;14.55;82.06;100148.78;4998087;28;20021;-76
2023/08/29 06:54:19;;;;;;;0.00;0.00;;;;;;;14.71;82.19;100174.94;5000838;28;20500;-76
2023/08/29 06:56:49;;;;;;;0.00;0.00;;;;;;;14.61;82.48;100169.56;4985313;28;20473;-75
2023/08/29 06:59:14;;;;;;;0.00;0.00;;;;;;;14.39;82.77;100151.75;4978102;28;20083;-75
2023/08/29 07:01:49;;;;;;;0.00;0.00;;;;;;;14.54;83.16;100180.94;5000993;28;20030;-75
2023/08/29 07:04:14;;;;;;;;;;;;;;;14.54;83.63;100171.88;5020702;28;20042;-77
2023/08/29 07:06:45;;;;;;;0.00;0.00;;;;;;;14.49;83.92;100172.78;4981613;28;20559;-76
2023/08/29 07:09:16;;;;;;;0.00;0.00;;;;;;;14.35;84.56;100138.91;5003667;28;20041;-78
2023/08/29 07:11:41;;;;;;;0.00;0.00;;;;;;;14.41;84.90;100154.19;5004319;28;20026;-76
2023/08/29 07:14:09;;;;;;;0.00;0.00;;;;;;;14.40;84.61;100134.13;4971912;28;20017;-76
2023/08/29 07:16:42;;;;;;;0.00;0.00;;;;;;;14.32;84.99;100123.78;4973011;28;20034;-75
2023/08/29 07:19:10;;;;;;;0.00;0.00;;;;;;;14.45;84.95;100147.78;5008026;28;20033;-74
2023/08/29 07:21:38;;;;;;;0.00;0.00;;;;;;;14.53;84.97;100150.97;5021910;28;20364;-75
2023/08/29 07:24:07;;;;;;;0.00;0.00;;;;;;;14.70;84.94;100162.28;4986640;28;20037;-76
2023/08/29 07:26:32;;;;;;;0.00;0.00;;;;;;;14.57;84.64;100138.28;4992246;28;20034;-75
2023/08/29 07:28:57;;;;;;;0.00;0.00;;;;;;;14.69;85.05;100146.94;5004221;28;20439;-75
2023/08/29 07:31:23;;;;;;;0.00;0.00;;;;;;;14.78;84.97;100150.63;4997716;28;20395;-74
2023/08/29 07:33:49;;;;;;;0.00;0.00;;;;;;;14.84;84.84;100152.16;5000719;28;20030;-75
2023/08/29 07:36:15;;;;;;;0.00;0.00;;;;;;;14.98;84.54;100159.63;4965100;28;20037;-75
2023/08/29 07:39:01;;;;;;;0.00;0.00;;;;;;;14.99;84.69;100158.53;4991775;28;20807;-76
2023/08/29 07:41:29;;;;;;;0.00;0.00;;;;;;;15.01;84.63;100157.09;5006653;28;20037;-75
2023/08/29 07:43:57;;;;;;;0.00;0.00;;;;;;;15.05;84.47;100151.00;5016162;28;20112;-73
2023/08/29 07:46:25;;;;;;;0.00;0.00;;;;;;;15.18;84.39;100151.00;4997633;28;20033;-75
2023/08/29 07:49:28;;;;;;;0.00;0.00;;;;;;;15.17;83.85;100137.53;4979415;28;20034;-75
2023/08/29 07:52:07;;;;;;;0.00;0.00;;;;;;;15.24;83.36;100126.13;4993336;28;20028;-75
2023/08/29 07:55:02;;;;;;;;;;;;;;;;;;;;;
2023/08/29 07:57:35;;;;;;;0.00;0.00;;;;;;;15.77;82.52;100163.38;5019385;28;20037;-74
2023/08/29 08:00:02;;;;;;;0.00;0.00;;;;;;;15.88;81.34;100156.56;4999387;28;20495;-75
2023/08/29 08:02:32;;;;;;;0.00;0.00;;;;;;;15.87;80.44;100130.13;4989803;28;20059;-75
2023/08/29 08:04:59;;;;;;;0.00;0.00;;;;;;;16.05;79.97;100136.63;5015393;28;20075;-74
2023/08/29 08:07:27;;;;;;;0.00;0.00;;;;;;;16.16;79.04;100135.25;5003190;28;20045;-75
2023/08/29 08:10:12;;;;;;;0.00;0.00;;;;;;;16.52;78.44;100137.19;4981953;28;20029;-74
2023/08/29 08:12:38;;;;;;;;;;;;;;;16.89;76.56;100150.94;4998044;28;20021;-74
2023/08/29 08:15:08;;;;;;;0.00;0.00;;;;;;;16.87;74.68;100136.63;5021425;28;19928;-74
2023/08/29 08:17:34;;;;;;;0.00;0.00;;;;;;;17.18;74.93;100150.47;4993932;28;20457;-73
2023/08/29 08:20:00;;;;;;;0.00;0.00;;;;;;;17.41;73.69;100139.38;5019514;28;20084;-74
2023/08/29 08:22:28;;;;;;;0.00;0.00;;;;;;;17.84;72.82;100143.41;5024185;28;20811;-75
2023/08/29 08:24:53;;;;;;;0.00;0.00;;;;;;;18.04;71.21;100133.72;4987248;28;20048;-75
2023/08/29 08:27:26;;;;;;;0.00;0.00;;;;;;;18.27;70.02;100129.66;5018339;28;20468;-74
2023/08/29 08:29:52;;;;;;;0.00;0.00;;;;;;;18.76;69.28;100145.25;4988990;28;20037;-75
2023/08/29 08:32:17;;;;;;;0.00;0.00;;;;;;;19.22;67.82;100143.72;4988003;28;20018;-74
2023/08/29 08:34:43;;;;;;;0.00;0.00;;;;;;;19.65;66.53;100137.16;4958656;28;21422;-75
2023/08/29 08:37:08;;;;;;;0.00;0.00;;;;;;;20.18;63.74;100134.91;4976149;28;20746;-75
2023/08/29 08:39:34;;;;;;;0.00;0.00;;;;;;;20.73;61.22;100116.34;5019231;28;20687;-76
2023/08/29 08:42:02;;;;;;;0.00;0.00;;;;;;;21.44;58.41;100106.00;5011530;28;20408;-74
2023/08/29 08:44:30;;;;;;;0.00;0.00;;;;;;;21.92;56.56;100125.03;5029803;28;20024;-75
2023/08/29 08:46:57;;;;;;;0.00;0.00;;;;;;;22.88;54.13;100103.13;5021929;28;20018;-76
2023/08/29 08:49:25;;;;;;;0.00;0.00;;;;;;;24.11;51.22;100102.16;5011144;28;20051;-74
2023/08/29 08:51:52;;;;;;;0.00;0.00;;;;;;;25.21;46.96;100096.28;5008633;28;20029;-76
2023/08/29 08:54:18;;;;;;;0.00;0.00;;;;;;;25.79;45.09;100086.03;5021729;28;20039;-74
2023/08/29 08:56:46;;;;;;;0.00;0.00;;;;;;;26.54;43.30;100111.44;5029314;28;20104;-74
2023/08/29 08:59:12;;;;;;;0.00;0.00;;;;;;;27.26;41.17;100115.03;5023621;28;20022;-76
2023/08/29 09:01:38;;;;;;;0.00;0.00;;;;;;;27.89;39.85;100106.69;5014345;28;20452;-74
2023/08/29 09:04:04;;;;;;;0.00;0.00;;;;;;;28.61;37.91;100095.81;5010972;28;20089;-75
2023/08/29 09:06:30;;;;;;;0.00;0.00;;;;;;;28.73;36.96;100114.31;5011695;28;20037;-75
2023/08/29 09:09:17;;;;;;;0.00;0.00;;;;;;;28.03;37.88;100126.44;4995002;28;20037;-74
2023/08/29 09:11:43;;;;;;;0.00;0.00;;;;;;;27.22;38.15;100122.59;5017183;28;20020;-75
2023/08/29 09:14:09;;;;;;;0.00;0.00;;;;;;;26.92;39.32;100103.88;5004093;28;20496;-75
2023/08/29 09:16:35;;;;;;;0.00;0.00;;;;;;;26.72;38.91;100099.66;5018287;28;20483;-75
2023/08/29 09:19:01;;;;;;;0.00;0.00;;;;;;;26.36;39.72;100104.84;5010994;28;20025;-76
2023/08/29 09:21:26;;;;;;;0.00;0.00;;;;;;;26.32;40.73;100109.59;4996097;28;20030;-75
2023/08/29 09:23:52;;;;;;;0.00;0.00;;;;;;;27.69;38.38;100115.38;4976090;28;20556;-76
2023/08/29 09:26:18;;;;;;;0.00;0.00;;;;;;;28.45;36.57;100109.38;4994060;28;20029;-75
2023/08/29 09:28:43;;;;;;;0.00;0.00;;;;;;;28.08;36.13;100119.66;5004543;28;20073;-74
2023/08/29 09:31:10;;;;;;;0.00;0.00;;;;;;;27.47;36.61;100127.66;5020005;28;20910;-76
2023/08/29 09:33:38;;;;;;;0.00;0.00;;;;;;;26.62;36.40;100121.56;5011095;28;20033;-75
2023/08/29 09:36:06;;;;;;;0.00;0.00;;;;;;;25.70;38.54;100114.31;4989651;28;20033;-75
2023/08/29 09:38:33;;;;;;;0.00;0.00;;;;;;;25.31;39.72;100110.88;5003671;28;20040;-75
2023/08/29 09:40:59;;;;;;;0.00;0.00;;;;;;;24.87;39.67;100106.50;5003167;28;20137;-76
2023/08/29 09:43:27;;;;;;;0.00;0.00;;;;;;;24.52;40.56;100094.22;5000796;28;20030;-75
2023/08/29 09:45:54;;;;;;;0.00;0.00;;;;;;;24.25;40.39;100109.22;5012829;28;20638;-75
2023/08/29 09:48:20;;;;;;;0.00;0.00;;;;;;;23.61;41.90;100096.25;5009057;28;20030;-75
2023/08/29 09:50:47;;;;;;;0.00;0.00;;;;;;;23.48;43.23;100103.91;5006651;28;21406;-74
2023/08/29 09:53:20;;;;;;;0.00;0.00;;;;;;;23.17;43.47;100097.16;5017008;28;20115;-75
2023/08/29 09:55:50;;;;;;;0.00;0.00;;;;;;;22.80;44.26;100100.16;5005619;28;21360;-74
2023/08/29 09:58:17;;;;;;;0.00;0.00;;;;;;;22.26;44.34;100101.41;5021634;28;20025;-76
2023/08/29 10:00:46;;;;;;;0.00;0.00;;;;;;;22.11;45.11;100094.59;4995878;28;20057;-75
2023/08/29 10:03:11;;;;;;;0.00;0.00;;;;;;;22.10;45.38;100087.41;4985647;28;20057;-75
2023/08/29 10:05:41;;;;;;;0.00;0.00;;;;;;;21.99;44.91;100097.44;4994181;28;20794;-75
2023/08/29 10:08:31;;;;;;;0.00;0.00;;;;;;;21.74;44.44;100086.34;5002506;28;20068;-76
2023/08/29 10:11:07;;;;;;;0.00;0.00;;;;;;;21.67;44.65;100080.56;4990597;28;20018;-77
2023/08/29 10:13:34;;;;;;;0.00;0.00;;;;;;;21.83;44.45;100082.59;5001488;28;20022;-76
2023/08/29 10:16:01;;;;;;;0.00;0.00;;;;;;;21.85;44.01;100099.78;4996560;28;20401;-75
2023/08/29 10:18:29;;;;;;;0.00;0.00;;;;;;;21.71;43.19;100092.59;4992436;28;20053;-74
2023/08/29 10:20:56;;;;;;;0.00;0.00;;;;;;;21.60;43.60;100088.66;4978458;28;20058;-74
2023/08/29 10:23:22;;;;;;;0.00;0.00;;;;;;;21.49;43.30;100095.81;4981600;28;20121;-76
2023/08/29 10:25:49;;;;;;;0.00;0.00;;;;;;;21.50;43.89;100089.09;5010212;28;20022;-75
2023/08/29 10:28:16;;;;;;;0.00;0.00;;;;;;;21.83;44.48;100079.81;5001583;28;20057;-76
2023/08/29 10:31:04;;;;;;;0.00;0.00;;;;;;;21.55;45.85;100058.28;5012716;28;20033;-75
2023/08/29 10:33:29;;;;;;;0.00;0.00;;;;;;;21.69;46.09;100075.44;5020285;28;20036;-74
2023/08/29 10:35:55;;;;;;;0.00;0.00;;;;;;;21.54;46.54;100067.81;5022254;28;20034;-73
2023/08/29 10:38:21;;;;;;;0.00;0.00;;;;;;;21.48;46.10;100083.91;4996757;28;20029;-74
2023/08/29 10:40:46;;;;;;;0.00;0.00;;;;;;;21.21;47.02;100074.25;5003433;28;20033;-74
2023/08/29 10:43:20;;;;;;;0.00;0.00;;;;;;;21.19;47.19;100071.03;5023895;28;20408;-74
2023/08/29 10:45:52;;;;;;;0.00;0.00;;;;;;;21.24;47.46;100068.81;5013894;28;20124;-73
2023/08/29 10:48:18;;;;;;;0.00;0.00;;;;;;;21.37;46.50;100061.28;5005540;28;20041;-74
2023/08/29 10:51:08;;;;;;;0.00;0.00;;;;;;;21.54;46.32;100067.81;4990871;28;20076;-73
2023/08/29 10:53:43;;;;;;;0.00;0.00;;;;;;;21.69;46.17;100055.16;4991540;28;20028;-74
2023/08/29 10:56:12;;;;;;;0.00;0.00;;;;;;;21.84;46.65;100059.97;5006841;28;20036;-73
2023/08/29 10:58:42;;;;;;;0.00;0.00;;;;;;;22.28;46.82;100064.84;4997282;28;20391;-74
2023/08/29 11:01:28;;;;;;;0.00;0.00;;;;;;;22.65;45.87;100065.50;5022084;28;21337;-74
2023/08/29 11:03:59;;;;;;;0.00;0.00;;;;;;;22.65;46.23;100062.72;5012829;28;20607;-74
2023/08/29 11:06:27;;;;;;;0.00;0.00;;;;;;;22.80;45.04;100072.28;4991077;28;20278;-74
2023/08/29 11:09:21;;;;;;;0.00;0.00;;;;;;;23.01;44.71;100062.84;5002149;28;20103;-73
2023/08/29 11:12:06;;;;;;;;;;;;;;;23.33;44.44;100063.69;4995665;28;20104;-74
2023/08/29 11:14:57;;;;;;;;;;;;;;;23.27;43.71;100064.31;5009871;28;19921;-74
2023/08/29 11:17:25;;;;;;;0.00;0.00;;;;;;;23.59;43.80;100058.69;4991053;28;19909;-74
2023/08/29 11:20:06;;;;;;;0.00;0.00;;;;;;;23.80;44.11;100048.03;5005019;28;20053;-75
2023/08/29 11:22:31;;;;;;;0.00;0.00;;;;;;;24.20;42.84;100055.25;4988570;28;20036;-75
2023/08/29 11:24:58;;;;;;;0.00;0.00;;;;;;;24.42;42.07;100061.28;4983679;28;20038;-75
2023/08/29 11:27:30;;;;;;;0.00;0.00;;;;;;;24.58;41.59;100058.41;4992629;28;20420;-72
2023/08/29 11:29:59;;;;;;;0.00;0.00;;;;;;;25.10;41.14;100053.34;5012764;28;20041;-73
2023/08/29 11:32:25;;;;;;;0.00;0.00;;;;;;;25.05;40.48;100059.25;5008502;28;20040;-74
2023/08/29 12:57:21;;;;;;;0.00;0.00;;;;;;;23.14;45.99;99971.56;5177817;23;20140;-76
2023/08/29 12:59:47;;;;;;;0.00;0.00;;;;;;;23.84;44.40;99969.91;4973330;28;20724;-75
2023/08/29 13:02:13;;;;;;;0.00;0.00;;;;;;;24.02;43.69;99964.72;5006859;28;20073;-79
2023/08/29 13:04:39;;;;;;;0.00;0.00;;;;;;;24.31;43.13;99965.28;4993374;28;20040;-76
2023/08/29 13:07:04;;;;;;;0.00;0.00;;;;;;;24.45;42.20;99971.13;4988677;28;20018;-76
2023/08/29 13:09:30;;;;;;;0.00;0.00;;;;;;;24.30;41.74;99964.47;4995290;28;20835;-74